createdAt,value
2022-10-06T00:00:50.337Z,5.75
2022-10-06T00:03:18.476Z,7.53
2022-10-06T00:05:47.771Z,11.05
2022-10-06T00:08:15.901Z,11.27
2022-10-06T00:10:43.840Z,10.48
2022-10-06T00:13:11.885Z,9.40
2022-10-06T00:15:40.332Z,8.70
2022-10-06T00:18:08.283Z,9.93
2022-10-06T00:20:36.280Z,8.25
2022-10-06T00:23:05.734Z,9.07
2022-10-06T00:25:33.642Z,7.50
2022-10-06T00:28:01.947Z,8.05
2022-10-06T00:30:31.655Z,6.53
2022-10-06T00:33:01.595Z,11.00
2022-10-06T00:35:32.429Z,6.78
2022-10-06T00:38:01.120Z,8.25
2022-10-06T00:40:31.319Z,8.10
2022-10-06T00:43:01.308Z,10.32
2022-10-06T00:45:34.737Z,9.00
2022-10-06T00:48:06.241Z,7.50
2022-10-06T00:50:34.795Z,7.63
2022-10-06T00:53:03.633Z,9.88
2022-10-06T00:55:33.398Z,11.63
2022-10-06T00:58:02.497Z,13.00
2022-10-06T01:00:31.449Z,13.60
2022-10-06T01:03:04.896Z,19.20
2022-10-06T01:05:36.996Z,10.82
2022-10-06T01:08:04.950Z,8.88
2022-10-06T01:10:34.287Z,7.65
2022-10-06T01:13:03.022Z,10.82
2022-10-06T01:15:31.064Z,7.00
2022-10-06T01:18:03.689Z,7.15
2022-10-06T01:20:31.858Z,5.55
2022-10-06T01:23:05.063Z,8.35
2022-10-06T01:25:35.002Z,6.47
2022-10-06T01:28:04.737Z,7.25
2022-10-06T01:30:40.431Z,7.07
2022-10-06T01:33:08.588Z,10.20
2022-10-06T01:35:36.641Z,7.30
2022-10-06T01:38:05.989Z,7.80
2022-10-06T01:40:35.022Z,10.02
2022-10-06T01:43:03.414Z,13.10
2022-10-06T01:45:31.422Z,8.90
2022-10-06T01:47:59.345Z,11.60
2022-10-06T01:50:28.449Z,8.82
2022-10-06T01:52:57.477Z,7.75
2022-10-06T01:55:27.151Z,8.10
2022-10-06T01:57:57.472Z,5.43
2022-10-06T02:00:26.873Z,7.13
2022-10-06T02:02:55.192Z,17.45
2022-10-06T02:05:23.113Z,11.48
2022-10-06T02:07:53.605Z,11.50
2022-10-06T02:10:21.638Z,11.52
2022-10-06T02:12:53.312Z,11.88
2022-10-06T02:15:23.203Z,9.30
2022-10-06T02:17:52.564Z,12.32
2022-10-06T02:20:20.474Z,11.70
2022-10-06T02:22:48.402Z,16.80
2022-10-06T02:25:17.150Z,17.17
2022-10-06T02:27:45.773Z,22.50
2022-10-06T02:30:15.865Z,22.38
2022-10-06T02:32:45.103Z,17.95
2022-10-06T02:35:13.734Z,17.00
2022-10-06T02:37:42.529Z,21.00
2022-10-06T02:40:13.292Z,14.00
2022-10-06T02:42:41.254Z,17.33
2022-10-06T02:45:10.933Z,19.48
2022-10-06T02:47:41.377Z,15.82
2022-10-06T02:50:10.213Z,15.30
2022-10-06T02:52:41.109Z,15.38
2022-10-06T02:55:10.657Z,16.20
2022-10-06T02:57:39.123Z,11.13
2022-10-06T03:00:09.186Z,11.00
2022-10-06T03:02:37.311Z,17.02
2022-10-06T03:05:08.014Z,11.80
2022-10-06T03:07:35.984Z,11.75
2022-10-06T03:10:04.014Z,14.68
2022-10-06T03:12:33.903Z,15.85
2022-10-06T03:15:02.197Z,19.17
2022-10-06T03:17:30.246Z,15.88
2022-10-06T03:19:59.069Z,18.35
2022-10-06T03:22:29.129Z,24.05
2022-10-06T03:24:59.007Z,20.63
2022-10-06T03:27:27.556Z,27.55
2022-10-06T03:30:01.199Z,34.85
2022-10-06T03:32:32.368Z,23.05
2022-10-06T03:35:00.831Z,22.30
2022-10-06T03:37:33.989Z,19.75
2022-10-06T03:40:02.253Z,15.25
2022-10-06T03:42:30.189Z,12.77
2022-10-06T03:44:58.157Z,12.90
2022-10-06T03:47:26.311Z,15.55
2022-10-06T03:49:54.249Z,13.40
2022-10-06T03:52:25.867Z,14.00
2022-10-06T03:54:55.945Z,9.25
2022-10-06T03:57:24.269Z,10.00
2022-10-06T03:59:52.363Z,12.10
2022-10-06T04:02:20.483Z,12.35
2022-10-06T04:04:48.564Z,10.35
2022-10-06T04:07:16.503Z,11.57
2022-10-06T04:09:44.457Z,11.13
2022-10-06T04:12:15.166Z,12.80
2022-10-06T04:14:44.612Z,12.25
2022-10-06T04:17:12.650Z,12.10
2022-10-06T04:19:42.124Z,14.45
2022-10-06T04:22:11.487Z,13.95
2022-10-06T04:24:39.391Z,16.35
2022-10-06T04:27:24.880Z,14.98
2022-10-06T04:29:59.760Z,18.50
2022-10-06T04:32:32.253Z,13.57
2022-10-06T04:35:00.207Z,12.82
2022-10-06T04:37:30.603Z,11.68
2022-10-06T04:39:59.271Z,14.25
2022-10-06T04:42:34.005Z,9.13
2022-10-06T04:45:06.051Z,8.82
2022-10-06T04:47:34.655Z,9.68
2022-10-06T04:50:03.088Z,16.05
2022-10-06T04:52:31.309Z,15.82
2022-10-06T04:54:59.370Z,14.15
2022-10-06T04:57:27.302Z,17.73
2022-10-06T05:00:15.063Z,21.52
2022-10-06T05:02:47.247Z,13.85
2022-10-06T05:05:15.322Z,10.30
2022-10-06T05:07:44.921Z,12.55
2022-10-06T05:10:13.426Z,14.20
2022-10-06T05:12:41.666Z,13.95
2022-10-06T05:15:10.742Z,13.20
2022-10-06T05:17:38.730Z,14.90
2022-10-06T05:20:10.860Z,16.50
2022-10-06T05:22:39.168Z,18.42
2022-10-06T05:25:08.073Z,12.00
2022-10-06T05:27:36.148Z,14.73
2022-10-06T05:30:04.375Z,15.20
2022-10-06T05:32:35.905Z,14.63
2022-10-06T05:35:05.273Z,15.93
2022-10-06T05:37:34.604Z,10.68
2022-10-06T05:40:02.938Z,13.10
2022-10-06T05:42:31.121Z,15.10
2022-10-06T05:45:00.195Z,13.82
2022-10-06T05:47:28.691Z,12.73
2022-10-06T05:49:56.932Z,10.30
2022-10-06T05:52:24.904Z,13.27
2022-10-06T05:54:54.643Z,11.38
2022-10-06T05:57:22.789Z,13.10
2022-10-06T05:59:50.743Z,8.93
2022-10-06T06:02:19.047Z,10.25
2022-10-06T06:04:47.734Z,8.40
2022-10-06T06:07:15.654Z,8.35
2022-10-06T06:09:46.093Z,14.30
2022-10-06T06:12:16.447Z,11.65
2022-10-06T06:15:06.494Z,15.30
2022-10-06T06:17:40.061Z,10.25
2022-10-06T06:20:09.050Z,9.63
2022-10-06T06:22:37.002Z,12.50
2022-10-06T06:25:07.666Z,10.23
2022-10-06T06:27:36.982Z,15.02
2022-10-06T06:30:06.614Z,11.52
2022-10-06T06:32:35.466Z,13.90
2022-10-06T06:35:04.507Z,9.32
2022-10-06T06:37:33.508Z,12.52
2022-10-06T06:40:02.243Z,9.65
2022-10-06T06:42:32.844Z,8.40
2022-10-06T06:45:21.072Z,11.15
2022-10-06T06:48:07.804Z,6.32
2022-10-06T06:50:35.944Z,10.50
2022-10-06T06:53:05.337Z,9.60
2022-10-06T06:55:38.249Z,14.32
2022-10-06T06:58:06.754Z,13.95
2022-10-06T07:00:36.873Z,16.08
2022-10-06T07:03:06.054Z,15.98
2022-10-06T07:05:34.986Z,13.18
2022-10-06T07:08:03.063Z,11.15
2022-10-06T07:10:31.531Z,8.23
2022-10-06T07:12:59.546Z,10.45
2022-10-06T07:15:45.004Z,9.88
2022-10-06T07:18:32.344Z,9.18
2022-10-06T07:21:18.575Z,8.77
2022-10-06T07:24:10.046Z,14.60
2022-10-06T07:26:38.260Z,5.95
2022-10-06T07:29:06.281Z,10.50
2022-10-06T07:31:37.688Z,12.65
2022-10-06T07:34:08.079Z,12.55
2022-10-06T07:36:36.012Z,10.05
2022-10-06T07:39:05.177Z,8.48
2022-10-06T07:41:33.322Z,6.80
2022-10-06T07:44:08.023Z,10.30
2022-10-06T07:46:36.895Z,4.78
2022-10-06T07:49:17.482Z,4.88
2022-10-06T07:51:45.899Z,7.35
2022-10-06T07:54:14.061Z,9.57
2022-10-06T07:57:00.594Z,7.93
2022-10-06T07:59:31.981Z,4.40
2022-10-06T08:01:59.975Z,4.80
2022-10-06T08:04:29.548Z,5.60
2022-10-06T08:06:58.319Z,10.82
2022-10-06T08:09:26.221Z,5.22
2022-10-06T08:11:54.488Z,5.38
2022-10-06T08:14:22.706Z,8.38
2022-10-06T08:16:50.864Z,4.97
2022-10-06T08:19:19.607Z,6.95
2022-10-06T08:21:48.882Z,6.25
2022-10-06T08:24:17.140Z,6.28
2022-10-06T08:26:45.082Z,6.15
2022-10-06T08:29:13.022Z,4.95
2022-10-06T08:31:41.000Z,7.07
2022-10-06T08:34:12.031Z,3.78
2022-10-06T08:36:56.998Z,7.15
2022-10-06T08:39:33.317Z,5.13
2022-10-06T08:42:01.244Z,5.72
2022-10-06T08:44:35.820Z,3.92
2022-10-06T08:47:07.738Z,7.43
2022-10-06T08:49:39.737Z,5.05
2022-10-06T08:52:20.403Z,5.72
2022-10-06T08:54:58.345Z,4.80
2022-10-06T08:57:32.593Z,4.85
2022-10-06T09:00:01.281Z,7.05
2022-10-06T09:02:32.451Z,5.78
2022-10-06T09:05:03.977Z,5.07
2022-10-06T09:07:40.853Z,4.07
2022-10-06T09:10:29.994Z,5.28
2022-10-06T09:13:04.812Z,5.53
2022-10-06T09:15:37.145Z,5.53
2022-10-06T09:18:11.334Z,8.68
2022-10-06T09:20:44.842Z,7.30
2022-10-06T09:23:16.653Z,5.47
2022-10-06T09:25:48.081Z,5.18
2022-10-06T09:28:17.436Z,6.28
2022-10-06T09:30:45.426Z,5.47
2022-10-06T09:33:22.278Z,6.80
2022-10-06T09:36:09.182Z,2.95
2022-10-06T09:38:48.751Z,6.22
2022-10-06T09:41:18.082Z,8.68
2022-10-06T09:43:57.521Z,4.70
2022-10-06T09:46:32.280Z,5.28
2022-10-06T09:49:08.783Z,8.68
2022-10-06T09:51:37.994Z,7.03
2022-10-06T09:54:15.161Z,6.70
2022-10-06T09:56:47.283Z,4.68
2022-10-06T09:59:22.127Z,4.35
2022-10-06T10:01:56.670Z,7.57
2022-10-06T10:04:30.284Z,5.60
2022-10-06T10:07:16.929Z,3.95
2022-10-06T10:09:44.880Z,4.72
2022-10-06T10:12:27.798Z,7.80
2022-10-06T10:14:58.778Z,3.63
2022-10-06T10:17:49.015Z,7.68
2022-10-06T10:20:35.140Z,4.30
2022-10-06T10:23:09.883Z,5.70
2022-10-06T10:26:14.470Z,4.10
2022-10-06T10:28:58.914Z,4.63
2022-10-06T10:31:34.614Z,8.75
2022-10-06T10:34:23.497Z,4.70
2022-10-06T10:36:57.405Z,5.00
2022-10-06T10:39:34.398Z,3.22
2022-10-06T10:42:10.700Z,6.18
2022-10-06T10:44:49.289Z,6.25
2022-10-06T10:47:23.161Z,4.82
2022-10-06T10:49:59.650Z,6.13
2022-10-06T10:52:33.322Z,5.60
2022-10-06T10:55:16.004Z,4.70
2022-10-06T10:57:45.138Z,9.07
2022-10-06T11:00:20.658Z,4.57
2022-10-06T11:02:54.915Z,3.15
2022-10-06T11:05:37.499Z,5.28
2022-10-06T11:08:15.596Z,4.65
2022-10-06T11:10:50.327Z,4.95
2022-10-06T11:13:27.760Z,9.70
2022-10-06T11:16:17.802Z,6.68
2022-10-06T11:19:15.788Z,5.20
2022-10-06T11:21:50.021Z,4.10
2022-10-06T11:24:26.698Z,6.15
2022-10-06T11:27:22.982Z,5.63
2022-10-06T11:30:02.685Z,4.47
2022-10-06T11:32:44.575Z,7.03
2022-10-06T11:35:20.924Z,2.80
2022-10-06T11:37:56.637Z,7.88
2022-10-06T11:40:36.595Z,3.63
2022-10-06T11:43:13.797Z,4.75
2022-10-06T11:45:49.273Z,5.03
2022-10-06T11:48:25.228Z,9.55
2022-10-06T11:50:55.450Z,3.67
2022-10-06T11:53:38.897Z,6.57
2022-10-06T11:56:46.589Z,4.80
2022-10-06T11:59:31.518Z,5.93
2022-10-06T12:02:01.872Z,5.70
2022-10-06T12:04:31.227Z,3.92
2022-10-06T12:07:06.268Z,9.82
2022-10-06T12:09:53.014Z,5.95
2022-10-06T12:13:05.802Z,6.60
2022-10-06T12:17:08.833Z,5.03
2022-10-06T12:19:00.341Z,3.80
2022-10-06T12:21:43.143Z,5.35
2022-10-06T12:24:32.632Z,3.47
2022-10-06T12:27:23.521Z,5.30
2022-10-06T12:30:01.295Z,4.53
2022-10-06T12:32:47.460Z,5.65
2022-10-06T12:35:25.853Z,4.63
2022-10-06T12:37:56.144Z,5.18
2022-10-06T12:40:49.061Z,3.53
2022-10-06T12:43:34.991Z,3.97
2022-10-06T12:46:07.343Z,6.47
2022-10-06T12:48:41.341Z,5.07
2022-10-06T12:51:20.334Z,5.18
2022-10-06T12:53:56.238Z,4.13
2022-10-06T12:56:29.153Z,8.25
2022-10-06T12:58:57.197Z,4.90
2022-10-06T13:01:26.801Z,3.33
2022-10-06T13:03:56.128Z,4.00
2022-10-06T13:06:27.192Z,5.65
2022-10-06T13:09:13.838Z,4.72
2022-10-06T13:11:41.992Z,5.68
2022-10-06T13:14:13.740Z,6.25
2022-10-06T13:16:45.504Z,2.85
2022-10-06T13:19:20.244Z,10.70
2022-10-06T13:21:51.557Z,3.30
2022-10-06T13:24:26.424Z,17.98
2022-10-06T13:26:54.973Z,14.75
2022-10-06T13:29:25.277Z,12.77
2022-10-06T13:31:55.274Z,6.75
2022-10-06T13:34:29.868Z,4.65
2022-10-06T13:37:00.024Z,3.83
2022-10-06T13:39:31.842Z,5.95
2022-10-06T13:42:04.498Z,2.53
2022-10-06T13:44:36.715Z,7.97
2022-10-06T13:47:07.900Z,7.18
2022-10-06T13:49:48.636Z,8.60
2022-10-06T13:52:20.027Z,3.25
2022-10-06T13:54:52.797Z,2.33
2022-10-06T13:57:35.186Z,2.97
2022-10-06T14:00:05.555Z,3.50
2022-10-06T14:02:35.113Z,3.10
2022-10-06T14:05:29.433Z,7.20
2022-10-06T14:08:00.620Z,3.78
2022-10-06T14:10:33.400Z,3.35
2022-10-06T14:13:02.216Z,7.90
2022-10-06T14:15:33.051Z,3.55
2022-10-06T14:18:02.514Z,3.03
2022-10-06T14:20:48.490Z,5.55
2022-10-06T14:23:42.575Z,4.00
2022-10-06T14:26:13.500Z,7.55
2022-10-06T14:28:48.038Z,7.75
2022-10-06T14:31:16.473Z,5.25
2022-10-06T14:33:44.471Z,3.13
2022-10-06T14:36:17.897Z,6.85
2022-10-06T14:38:48.035Z,10.05
2022-10-06T14:41:19.334Z,5.13
2022-10-06T14:43:52.724Z,3.63
2022-10-06T14:46:20.840Z,7.38
2022-10-06T14:48:51.840Z,4.22
2022-10-06T14:51:20.025Z,4.30
2022-10-06T14:53:53.949Z,4.13
2022-10-06T14:56:24.362Z,5.85
2022-10-06T14:58:53.243Z,10.18
2022-10-06T15:01:24.478Z,5.63
2022-10-06T15:03:52.874Z,4.30
2022-10-06T15:06:38.578Z,6.25
2022-10-06T15:09:06.826Z,4.07
2022-10-06T15:11:37.052Z,8.00
2022-10-06T15:14:05.956Z,14.82
2022-10-06T15:16:35.877Z,15.05
2022-10-06T15:19:05.522Z,8.75
2022-10-06T15:21:34.192Z,16.15
2022-10-06T15:24:04.306Z,16.48
2022-10-06T15:26:50.564Z,16.67
2022-10-06T15:29:20.172Z,17.20
2022-10-06T15:31:53.066Z,15.48
2022-10-06T15:34:23.520Z,13.70
2022-10-06T15:36:52.824Z,12.88
2022-10-06T15:39:23.556Z,10.63
2022-10-06T15:41:52.337Z,6.82
2022-10-06T15:44:22.212Z,6.57
2022-10-06T15:46:51.847Z,8.18
2022-10-06T15:49:21.435Z,6.93
2022-10-06T15:51:53.021Z,7.45
2022-10-06T15:54:23.656Z,8.13
2022-10-06T15:56:53.329Z,5.80
2022-10-06T15:59:24.705Z,10.98
2022-10-06T16:01:55.966Z,10.10
2022-10-06T16:04:32.823Z,9.50
2022-10-06T16:07:01.229Z,7.55
2022-10-06T16:09:31.686Z,5.32
2022-10-06T16:12:01.857Z,10.80
2022-10-06T16:14:31.874Z,11.95
2022-10-06T16:17:00.910Z,5.93
2022-10-06T16:19:30.701Z,3.58
2022-10-06T16:22:01.511Z,7.32
2022-10-06T16:24:29.538Z,6.47
2022-10-06T16:26:58.657Z,5.75
2022-10-06T16:29:27.247Z,3.15
2022-10-06T16:31:59.024Z,4.68
2022-10-06T16:34:26.960Z,5.35
2022-10-06T16:36:54.893Z,8.65
2022-10-06T16:39:23.349Z,4.82
2022-10-06T16:41:52.410Z,4.43
2022-10-06T16:44:20.330Z,10.52
2022-10-06T16:46:48.401Z,10.65
2022-10-06T16:49:17.717Z,10.10
2022-10-06T16:51:46.737Z,6.07
2022-10-06T16:54:16.992Z,5.22
2022-10-06T16:56:47.248Z,8.52
2022-10-06T16:59:16.632Z,11.40
2022-10-06T17:01:45.262Z,16.60
2022-10-06T17:04:15.647Z,23.60
2022-10-06T17:06:46.783Z,10.82
2022-10-06T17:09:16.666Z,10.25
2022-10-06T17:11:45.961Z,9.15
2022-10-06T17:14:14.341Z,6.45
2022-10-06T17:16:44.274Z,10.90
2022-10-06T17:19:13.749Z,5.15
2022-10-06T17:21:47.159Z,5.72
2022-10-06T17:24:18.535Z,9.05
2022-10-06T17:26:48.881Z,4.90
2022-10-06T17:29:18.739Z,7.88
2022-10-06T17:31:48.085Z,8.93
2022-10-06T17:34:20.679Z,7.85
2022-10-06T17:36:52.097Z,6.97
2022-10-06T17:39:24.312Z,8.43
2022-10-06T17:41:54.361Z,11.70
2022-10-06T17:44:25.716Z,7.15
2022-10-06T17:46:55.574Z,5.65
2022-10-06T17:49:26.146Z,8.50
2022-10-06T17:51:55.461Z,6.07
2022-10-06T17:54:27.071Z,7.70
2022-10-06T17:56:56.942Z,9.00
2022-10-06T17:59:28.297Z,6.25
2022-10-06T18:01:57.500Z,6.85
2022-10-06T18:04:26.517Z,8.93
2022-10-06T18:06:55.402Z,5.47
2022-10-06T18:09:24.838Z,6.28
2022-10-06T18:11:56.051Z,6.05
2022-10-06T18:14:26.140Z,9.40
2022-10-06T18:16:57.683Z,6.50
2022-10-06T18:19:29.740Z,23.73
2022-10-06T18:21:59.403Z,17.55
2022-10-06T18:24:31.270Z,12.65
2022-10-06T18:27:01.163Z,11.27
2022-10-06T18:29:31.414Z,15.25
2022-10-06T18:32:26.979Z,11.48
2022-10-06T18:37:35.872Z,16.52
2022-10-06T18:40:08.722Z,16.17
2022-10-06T18:42:36.892Z,13.98
2022-10-06T18:45:22.926Z,15.07
2022-10-06T18:48:09.287Z,16.02
2022-10-06T18:50:37.323Z,9.65
2022-10-06T18:53:05.323Z,10.63
2022-10-06T18:55:35.017Z,10.63
2022-10-06T18:58:04.831Z,12.30
2022-10-06T19:00:34.507Z,9.65
2022-10-06T19:03:02.745Z,14.27
2022-10-06T19:05:31.263Z,13.30
2022-10-06T19:07:59.202Z,9.27
2022-10-06T19:10:29.080Z,11.50
2022-10-06T19:12:59.030Z,5.57
2022-10-06T19:15:28.445Z,8.27
2022-10-06T19:17:56.407Z,12.02
2022-10-06T19:20:24.391Z,8.77
2022-10-06T19:22:52.862Z,9.70
2022-10-06T19:25:21.771Z,8.95
2022-10-06T19:27:52.647Z,8.77
2022-10-06T19:30:22.241Z,6.20
2022-10-06T19:32:51.727Z,6.10
2022-10-06T19:35:19.899Z,6.90
2022-10-06T19:37:47.857Z,8.15
2022-10-06T19:40:15.805Z,5.47
2022-10-06T19:42:49.015Z,10.40
2022-10-06T19:45:18.013Z,8.60
2022-10-06T19:47:47.760Z,11.15
2022-10-06T19:50:16.852Z,8.70
2022-10-06T19:52:45.158Z,7.03
2022-10-06T19:55:13.372Z,8.38
2022-10-06T19:57:43.067Z,7.55
2022-10-06T20:00:12.801Z,6.18
2022-10-06T20:02:43.466Z,7.35
2022-10-06T20:05:14.380Z,7.50
2022-10-06T20:07:45.183Z,8.70
2022-10-06T20:10:14.659Z,6.07
2022-10-06T20:12:42.722Z,6.40
2022-10-06T20:15:12.649Z,5.05
2022-10-06T20:17:42.353Z,4.68
2022-10-06T20:20:11.074Z,7.60
2022-10-06T20:22:40.392Z,6.65
2022-10-06T20:25:11.679Z,7.72
2022-10-06T20:27:42.366Z,6.55
2022-10-06T20:30:11.210Z,4.88
2022-10-06T20:32:39.306Z,6.32
2022-10-06T20:35:08.010Z,5.32
2022-10-06T20:37:38.268Z,6.88
2022-10-06T20:40:27.216Z,6.35
2022-10-06T20:42:55.138Z,7.82
2022-10-06T20:45:23.419Z,9.90
2022-10-06T20:47:51.350Z,6.10
2022-10-06T20:50:19.857Z,9.02
2022-10-06T20:52:48.409Z,4.30
2022-10-06T20:55:17.690Z,6.78
2022-10-06T20:57:45.893Z,6.32
2022-10-06T21:00:14.865Z,6.28
2022-10-06T21:02:42.887Z,10.13
2022-10-06T21:05:10.977Z,7.05
2022-10-06T21:07:39.085Z,6.05
2022-10-06T21:10:08.284Z,7.40
2022-10-06T21:12:37.565Z,6.90
2022-10-06T21:15:05.848Z,7.65
2022-10-06T21:17:33.819Z,7.93
2022-10-06T21:20:01.805Z,4.65
2022-10-06T21:22:31.415Z,8.68
2022-10-06T21:24:59.631Z,8.48
2022-10-06T21:27:27.709Z,5.72
2022-10-06T21:29:57.053Z,5.68
2022-10-06T21:32:25.703Z,11.88
2022-10-06T21:34:56.496Z,8.82
2022-10-06T21:37:24.528Z,5.72
2022-10-06T21:39:52.744Z,6.43
2022-10-06T21:42:22.815Z,5.63
2022-10-06T21:44:50.785Z,5.72
2022-10-06T21:47:20.148Z,10.85
2022-10-06T21:49:48.578Z,4.93
2022-10-06T21:52:16.516Z,7.15
2022-10-06T21:54:44.478Z,6.75
2022-10-06T21:57:15.309Z,5.55
2022-10-06T21:59:43.262Z,7.45
2022-10-06T22:02:11.343Z,3.92
2022-10-06T22:04:41.720Z,4.80
2022-10-06T22:07:09.672Z,5.85
2022-10-06T22:09:37.658Z,6.15
2022-10-06T22:12:05.854Z,7.40
2022-10-06T22:14:34.791Z,6.90
2022-10-06T22:17:04.834Z,4.90
2022-10-06T22:19:33.108Z,7.35
2022-10-06T22:22:02.461Z,6.05
2022-10-06T22:24:30.525Z,4.35
2022-10-06T22:26:58.801Z,7.63
2022-10-06T22:29:26.785Z,4.85
2022-10-06T22:32:52.192Z,8.02
2022-10-06T22:35:20.131Z,7.75
2022-10-06T22:37:49.997Z,4.88
2022-10-06T22:40:18.046Z,6.18
2022-10-06T22:42:46.027Z,8.77
2022-10-06T22:45:13.972Z,10.55
2022-10-06T22:47:42.289Z,7.57
2022-10-06T22:50:10.775Z,20.92
2022-10-06T22:52:38.730Z,11.13
2022-10-06T22:55:11.264Z,6.40
2022-10-06T22:57:39.263Z,6.93
2022-10-06T23:00:08.309Z,4.82
2022-10-06T23:02:36.281Z,7.40
2022-10-06T23:05:04.524Z,4.70
2022-10-06T23:07:32.514Z,5.25
2022-10-06T23:10:00.616Z,5.35
2022-10-06T23:12:29.910Z,8.90
2022-10-06T23:14:57.877Z,5.90
2022-10-06T23:17:26.095Z,6.05
2022-10-06T23:19:54.059Z,8.38
2022-10-06T23:22:22.065Z,6.22
2022-10-06T23:24:50.019Z,5.57
2022-10-06T23:27:18.002Z,4.22
2022-10-06T23:29:47.701Z,6.40
2022-10-06T23:32:15.652Z,6.55
2022-10-06T23:34:43.632Z,4.95
2022-10-06T23:37:11.704Z,8.45
2022-10-06T23:39:39.654Z,7.53
2022-10-06T23:42:09.554Z,6.38
2022-10-06T23:44:37.822Z,7.80
2022-10-06T23:47:07.774Z,8.82
2022-10-06T23:49:35.745Z,5.55
2022-10-06T23:52:04.761Z,5.47
2022-10-06T23:54:32.777Z,5.13
2022-10-06T23:57:00.863Z,6.18
2022-10-06T23:59:29.568Z,8.27
